Time;durP1;ratioP1;P1;durP2;ratioP2;P2;SDS_P1;SDS_P2;PMS_P1;PMS_P2;Temp;Humidity;BMP_temperature;BMP_pressure;BME280_temperature;BME280_humidity;BME280_pressure;Samples;Min_cycle;Max_cycle;Signal;HPM_P1;HPM_P2
2021/11/04 00:01:42;;;;;;;37.13;23.77;;;;;;;9.27;81.28;98902.56;5082731;28;20500;-73
2021/11/04 00:04:08;;;;;;;32.33;22.40;;;;;;;9.32;81.21;98905.56;5082987;28;20487;-73
2021/11/04 00:06:35;;;;;;;38.97;22.00;;;;;;;9.40;80.78;98902.03;5083279;28;20522;-74
2021/11/04 00:09:02;;;;;;;33.67;20.73;;;;;;;9.42;80.67;98913.38;5083717;28;20452;-74
2021/11/04 00:11:30;;;;;;;40.27;24.70;;;;;;;9.55;80.41;98918.22;5083253;28;20487;-73
2021/11/04 00:13:57;;;;;;;36.87;23.23;;;;;;;9.54;80.19;98912.03;5084054;28;20448;-74
2021/11/04 00:16:23;;;;;;;36.47;22.90;;;;;;;9.48;80.24;98901.19;5082479;28;20480;-73
2021/11/04 00:18:50;;;;;;;35.27;22.33;;;;;;;9.54;80.28;98897.88;5083451;28;20577;-73
2021/11/04 00:21:17;;;;;;;37.33;23.70;;;;;;;9.55;80.02;98896.88;5083132;28;20475;-73
2021/11/04 00:23:43;;;;;;;34.43;21.40;;;;;;;9.59;79.93;98895.53;5083616;28;20444;-74
2021/11/04 00:26:10;;;;;;;36.10;22.50;;;;;;;9.53;80.03;98896.19;5082900;28;20470;-74
2021/11/04 00:28:38;;;;;;;39.07;23.10;;;;;;;9.34;80.79;98897.34;5083533;28;20482;-74
2021/11/04 00:31:05;;;;;;;31.47;21.60;;;;;;;9.30;81.06;98904.03;5083212;28;20512;-74
2021/11/04 00:33:31;;;;;;;31.07;21.17;;;;;;;9.40;80.93;98905.53;5082804;28;20433;-73
2021/11/04 00:35:58;;;;;;;35.20;21.57;;;;;;;9.56;80.65;98907.38;5082339;28;20551;-74
2021/11/04 00:38:24;;;;;;;35.67;20.60;;;;;;;9.53;80.54;98909.53;5082865;28;20475;-74
2021/11/04 00:40:51;;;;;;;35.80;22.20;;;;;;;9.61;80.08;98905.03;5082808;28;20892;-74
2021/11/04 00:43:18;;;;;;;38.53;22.83;;;;;;;9.65;80.06;98902.84;5081997;28;20464;-74
2021/11/04 00:45:46;;;;;;;35.13;23.80;;;;;;;9.63;80.16;98902.19;5083342;28;20491;-74
2021/11/04 00:48:12;;;;;;;36.40;22.53;;;;;;;9.51;80.26;98900.88;5083191;28;20471;-74
2021/11/04 00:50:39;;;;;;;36.73;22.27;;;;;;;9.29;81.14;98897.03;5082373;28;21022;-74
2021/11/04 00:53:06;;;;;;;36.10;22.53;;;;;;;9.32;81.19;98889.56;5082990;28;20476;-74
2021/11/04 00:55:33;;;;;;;35.50;22.67;;;;;;;9.37;81.10;98899.69;5082616;28;20799;-74
2021/11/04 00:57:59;;;;;;;38.10;23.80;;;;;;;9.44;81.18;98898.03;5081714;28;20500;-74
2021/11/04 01:00:26;;;;;;;36.30;23.33;;;;;;;9.40;81.30;98894.88;5082579;28;20931;-74
2021/11/04 01:02:54;;;;;;;34.37;21.40;;;;;;;9.40;81.09;98894.88;5082961;28;20464;-74
2021/11/04 01:05:21;;;;;;;34.30;21.13;;;;;;;9.41;81.15;98895.72;5081516;28;20519;-74
2021/11/04 01:07:48;;;;;;;33.17;20.53;;;;;;;9.50;80.65;98899.22;5082032;28;21048;-74
2021/11/04 01:10:15;;;;;;;34.17;21.50;;;;;;;9.48;80.78;98904.72;5082367;28;20513;-74
2021/11/04 01:12:41;;;;;;;32.67;21.00;;;;;;;9.46;80.64;98905.88;5082239;28;20425;-74
2021/11/04 01:15:09;;;;;;;36.57;20.27;;;;;;;9.41;80.68;98903.72;5081850;28;20456;-74
2021/11/04 01:17:36;;;;;;;35.03;20.87;;;;;;;9.45;80.78;98904.22;5082436;28;20542;-74
2021/11/04 01:20:23;;;;;;;34.23;20.73;;;;;;;9.52;80.51;98907.88;5058837;28;20516;-74
2021/11/04 01:22:51;;;;;;;37.90;21.47;;;;;;;9.55;80.35;98905.72;5060535;28;20527;-74
2021/11/04 01:25:17;;;;;;;31.67;19.33;;;;;;;9.53;80.58;98907.72;5059550;28;20957;-74
2021/11/04 01:27:44;;;;;;;33.93;21.27;;;;;;;9.53;80.28;98906.88;5058901;28;20500;-74
2021/11/04 01:30:11;;;;;;;32.50;20.80;;;;;;;9.50;80.36;98901.88;5059144;28;20468;-74
2021/11/04 01:32:38;;;;;;;30.53;19.43;;;;;;;9.41;80.73;98903.72;5059606;28;20476;-74
2021/11/04 01:35:05;;;;;;;30.70;18.80;;;;;;;9.48;80.42;98898.53;5058401;28;20598;-74
2021/11/04 01:37:34;;;;;;;32.10;19.70;;;;;;;9.43;80.72;98894.53;5060879;28;21064;-74
2021/11/04 01:40:01;;;;;;;29.00;17.70;;;;;;;9.40;80.66;98886.88;5082054;28;20452;-75
2021/11/04 01:42:27;;;;;;;33.23;19.60;;;;;;;9.24;81.26;98884.22;5081493;28;20541;-74
2021/11/04 01:44:54;;;;;;;32.13;19.47;;;;;;;9.34;80.93;98884.03;5082613;28;20456;-74
2021/11/04 01:47:21;;;;;;;27.27;18.30;;;;;;;9.35;81.25;98881.19;5081428;28;20499;-74
2021/11/04 01:49:47;;;;;;;28.20;18.60;;;;;;;9.11;81.69;98870.53;5080722;28;20454;-74
2021/11/04 01:52:14;;;;;;;26.20;17.47;;;;;;;9.08;82.15;98869.03;5082019;28;20523;-74
2021/11/04 01:54:42;;;;;;;25.67;16.83;;;;;;;9.09;82.01;98869.84;5082367;28;20479;-75
2021/11/04 01:57:09;;;;;;;29.27;17.37;;;;;;;9.16;81.48;98862.84;5081540;28;20494;-74
2021/11/04 01:59:36;;;;;;;29.30;16.87;;;;;;;9.12;82.09;98858.88;5081311;28;20964;-74
2021/11/04 02:02:07;;;;;;;25.10;16.40;;;;;;;9.11;81.72;98855.34;5079846;28;20546;-74
2021/11/04 02:04:38;;;;;;;26.00;16.43;;;;;;;9.01;82.12;98855.53;5081197;28;20506;-74
2021/11/04 02:07:10;;;;;;;25.03;17.10;;;;;;;9.04;81.96;98852.53;5080460;28;20487;-73
2021/11/04 02:09:38;;;;;;;28.33;16.63;;;;;;;9.03;81.67;98848.19;5081842;28;20988;-74
2021/11/04 02:12:13;;;;;;;24.53;15.37;;;;;;;9.09;81.32;98857.34;5080309;28;20495;-74
2021/11/04 02:14:43;;;;;;;21.63;14.60;;;;;;;8.97;81.93;98858.66;5082634;28;20455;-74
2021/11/04 02:17:10;;;;;;;25.93;15.30;;;;;;;8.98;81.99;98857.69;5081178;28;20604;-75
2021/11/04 02:19:40;;;;;;;23.70;14.43;;;;;;;8.84;82.50;98853.84;5081475;28;20479;-74
2021/11/04 02:22:11;;;;;;;21.90;15.23;;;;;;;9.08;81.92;98857.50;5074080;28;20479;-75
2021/11/04 02:24:41;;;;;;;22.30;14.20;;;;;;;9.00;81.81;98856.50;5082723;28;20546;-74
2021/11/04 02:27:12;;;;;;;23.80;14.43;;;;;;;8.97;81.82;98859.50;5081698;28;20480;-74
2021/11/04 02:29:40;;;;;;;23.00;14.70;;;;;;;9.02;81.92;98859.00;5081847;28;20816;-74
2021/11/04 02:32:07;;;;;;;22.53;13.63;;;;;;;9.09;81.42;98867.19;5081024;28;21078;-74
2021/11/04 02:34:34;;;;;;;17.50;13.03;;;;;;;9.08;81.48;98861.03;5081134;28;20949;-75
2021/11/04 02:37:01;;;;;;;19.87;12.00;;;;;;;9.00;81.74;98858.34;5080954;28;20602;-75
2021/11/04 02:39:29;;;;;;;18.13;11.57;;;;;;;8.92;82.03;98856.50;5085446;28;20997;-74
2021/11/04 02:41:56;;;;;;;20.00;12.23;;;;;;;8.83;82.28;98852.97;5084602;28;20551;-73
2021/11/04 02:44:26;;;;;;;20.27;11.27;;;;;;;8.88;81.94;98851.66;5085868;28;20497;-73
2021/11/04 02:46:55;;;;;;;19.00;12.30;;;;;;;8.76;82.40;98846.63;5085185;28;20472;-73
2021/11/04 02:49:22;;;;;;;17.33;12.53;;;;;;;8.88;82.18;98841.00;5084056;28;20491;-73
2021/11/04 02:51:48;;;;;;;18.77;12.10;;;;;;;8.90;82.20;98847.00;5085258;28;20511;-73
2021/11/04 02:54:15;;;;;;;15.83;11.03;;;;;;;9.05;81.91;98845.34;5085393;28;20440;-73
2021/11/04 02:56:43;;;;;;;15.53;11.87;;;;;;;8.91;81.87;98854.00;5084721;28;20507;-74
2021/11/04 02:59:11;;;;;;;17.40;12.10;;;;;;;9.00;81.52;98861.84;5084917;28;20787;-73
2021/11/04 03:01:42;;;;;;;17.23;12.13;;;;;;;8.81;82.19;98859.47;5084400;28;20479;-73
2021/11/04 03:04:09;;;;;;;19.00;12.13;;;;;;;8.74;82.26;98861.97;5084640;28;20497;-73
2021/11/04 03:06:35;;;;;;;19.40;12.90;;;;;;;8.89;81.68;98866.66;5084692;28;20555;-72
2021/11/04 03:09:02;;;;;;;18.00;13.30;;;;;;;8.98;81.68;98879.84;5084743;28;20476;-73
2021/11/04 03:11:29;;;;;;;19.30;12.93;;;;;;;9.11;81.06;98882.00;5083774;28;20500;-72
2021/11/04 03:13:56;;;;;;;19.80;13.80;;;;;;;9.16;80.89;98877.00;5084788;28;20447;-74
2021/11/04 03:16:24;;;;;;;18.53;12.90;;;;;;;9.20;80.92;98873.03;5083634;28;20506;-73
2021/11/04 03:18:53;;;;;;;17.90;12.53;;;;;;;9.14;80.98;98875.53;5084684;28;20448;-74
2021/11/04 03:21:20;;;;;;;19.37;13.00;;;;;;;9.04;80.96;98873.84;5084479;28;20915;-74
2021/11/04 03:23:47;;;;;;;18.47;12.93;;;;;;;9.03;81.31;98874.84;5085341;28;20466;-73
2021/11/04 03:26:14;;;;;;;20.63;14.17;;;;;;;8.92;81.59;98867.16;5084482;28;20487;-73
2021/11/04 03:28:41;;;;;;;18.00;12.97;;;;;;;9.11;81.21;98871.34;5084078;28;20480;-73
2021/11/04 03:31:08;;;;;;;20.00;13.70;;;;;;;8.95;81.48;98874.81;5083734;28;20490;-74
2021/11/04 03:33:35;;;;;;;16.73;12.83;;;;;;;8.93;81.55;98874.16;5084456;28;20440;-74
2021/11/04 03:36:04;;;;;;;19.73;12.10;;;;;;;8.92;81.62;98877.81;5083701;28;20479;-73
2021/11/04 03:38:31;;;;;;;24.20;14.03;;;;;;;8.98;81.65;98876.34;5085110;28;20951;-73
2021/11/04 03:40:58;;;;;;;21.93;14.57;;;;;;;8.70;82.67;98875.75;5083783;28;20480;-74
2021/11/04 03:43:25;;;;;;;22.30;15.30;;;;;;;8.76;82.33;98883.13;5083586;28;20807;-75
2021/11/04 03:45:53;;;;;;;23.33;15.20;;;;;;;8.74;82.44;98864.63;5083818;28;20578;-74
2021/11/04 03:48:20;;;;;;;23.43;15.17;;;;;;;8.88;82.36;98879.16;5073464;28;20471;-74
2021/11/04 03:50:47;;;;;;;29.23;17.30;;;;;;;8.81;82.38;98886.13;5082635;28;20487;-74
2021/11/04 03:53:17;;;;;;;29.70;16.93;;;;;;;8.99;81.90;98880.66;5084524;28;20444;-73
2021/11/04 03:55:44;;;;;;;29.43;16.83;;;;;;;8.72;82.42;98881.78;5073232;28;20477;-74
2021/11/04 03:58:11;;;;;;;27.33;16.17;;;;;;;8.81;82.37;98884.28;5064027;28;20512;-74
2021/11/04 04:00:38;;;;;;;28.37;16.60;;;;;;;8.67;82.80;98879.59;5063294;28;20793;-74
2021/11/04 04:03:04;;;;;;;30.70;17.77;;;;;;;8.67;83.13;98885.75;5063898;28;20898;-74
2021/11/04 04:05:32;;;;;;;28.80;17.23;;;;;;;8.72;82.89;98887.94;5062542;28;20472;-74
2021/11/04 04:08:00;;;;;;;31.97;17.33;;;;;;;8.70;83.17;98891.75;5064199;28;20468;-74
2021/11/04 04:10:30;;;;;;;29.77;19.27;;;;;;;8.74;83.02;98891.28;5062905;28;20460;-74
2021/11/04 04:12:56;;;;;;;30.27;18.33;;;;;;;8.66;83.11;98889.44;5063650;28;20448;-75
2021/11/04 04:15:23;;;;;;;34.27;16.90;;;;;;;8.59;83.76;98895.53;5063419;28;20469;-74
2021/11/04 04:17:50;;;;;;;34.40;17.90;;;;;;;8.55;83.46;98896.88;5063311;28;20542;-74
2021/11/04 04:20:16;;;;;;;35.90;19.90;;;;;;;8.47;84.16;98900.31;5062376;28;20460;-74
2021/11/04 04:22:44;;;;;;;37.67;19.17;;;;;;;8.43;84.37;98913.13;5063994;28;20433;-75
2021/11/04 04:25:11;;;;;;;37.73;19.13;;;;;;;8.56;84.35;98909.19;5062979;28;20471;-74
2021/11/04 04:27:39;;;;;;;41.13;19.60;;;;;;;8.46;84.46;98914.66;5063142;28;20495;-74
2021/11/04 04:30:06;;;;;;;45.63;21.80;;;;;;;8.66;83.94;98921.41;5062506;28;20483;-74
2021/11/04 04:32:33;;;;;;;41.80;21.60;;;;;;;8.44;84.19;98929.97;5063793;28;20491;-74
2021/11/04 04:34:59;;;;;;;36.03;21.23;;;;;;;8.73;83.82;98924.25;5063132;28;20517;-74
2021/11/04 04:37:26;;;;;;;43.53;21.93;;;;;;;8.75;83.46;98926.72;5063859;28;20492;-74
2021/11/04 04:39:52;;;;;;;36.47;20.03;;;;;;;8.47;84.02;98927.81;5063322;28;20467;-74
2021/11/04 04:42:19;;;;;;;42.00;22.80;;;;;;;8.63;84.00;98926.22;5062464;28;20515;-74
2021/11/04 04:44:47;;;;;;;46.53;23.60;;;;;;;8.58;84.15;98920.53;5063063;28;20448;-75
2021/11/04 04:47:14;;;;;;;43.77;24.03;;;;;;;8.52;84.14;98926.50;5063307;28;20496;-75
2021/11/04 04:49:40;;;;;;;46.80;22.80;;;;;;;8.58;83.76;98923.19;5061728;28;20489;-75
2021/11/04 04:52:08;;;;;;;62.37;23.47;;;;;;;8.65;83.73;98924.22;5063258;28;20513;-74
2021/11/04 04:54:34;;;;;;;40.37;21.60;;;;;;;8.83;83.28;98927.59;5063063;28;20441;-74
2021/11/04 04:57:01;;;;;;;41.17;22.00;;;;;;;8.86;82.87;98934.44;5062176;28;20534;-74
2021/11/04 04:59:29;;;;;;;41.20;21.27;;;;;;;8.60;83.57;98934.53;5062458;28;20483;-75
2021/11/04 05:01:57;;;;;;;43.17;22.73;;;;;;;8.56;83.79;98941.16;5059008;28;20468;-75
2021/11/04 05:04:24;;;;;;;42.30;21.50;;;;;;;8.42;84.40;98939.88;5062290;28;20477;-74
2021/11/04 05:06:50;;;;;;;45.70;21.47;;;;;;;8.39;84.75;98940.22;5062545;28;20523;-74
2021/11/04 05:09:17;;;;;;;41.30;22.20;;;;;;;8.57;84.12;98945.50;5062289;28;20770;-74
2021/11/04 05:11:44;;;;;;;44.80;21.10;;;;;;;8.58;83.92;98936.53;5061531;28;20492;-75
2021/11/04 05:14:10;;;;;;;43.23;22.37;;;;;;;8.58;84.23;98940.00;5063336;28;20433;-74
2021/11/04 05:19:19;;;;;;;44.00;22.03;;;;;;;8.49;84.18;98930.31;5042445;28;20866;-74
2021/11/04 05:21:46;;;;;;;44.70;21.63;;;;;;;8.51;84.19;98928.34;5046341;28;20493;-74
2021/11/04 05:24:12;;;;;;;39.67;23.43;;;;;;;8.45;84.45;98942.28;5052260;28;20895;-74
2021/11/04 05:26:39;;;;;;;44.13;23.10;;;;;;;8.40;84.67;98936.56;5048007;28;20552;-74
2021/11/04 05:29:06;;;;;;;47.93;23.30;;;;;;;8.59;84.14;98944.34;5029635;28;20442;-74
2021/11/04 05:31:33;;;;;;;44.50;22.87;;;;;;;8.62;83.80;98938.69;5043979;28;20528;-74
2021/11/04 05:34:00;;;;;;;43.60;21.00;;;;;;;8.67;83.60;98939.03;5039367;28;20446;-74
2021/11/04 05:36:29;;;;;;;44.60;23.77;;;;;;;8.65;83.76;98942.88;5053418;28;20501;-74
2021/11/04 05:38:56;;;;;;;44.73;23.37;;;;;;;8.67;83.63;98946.22;5039482;28;20493;-74
2021/11/04 05:41:23;;;;;;;45.83;21.57;;;;;;;8.63;83.52;98939.53;5042327;28;20513;-74
2021/11/04 05:43:50;;;;;;;40.80;22.73;;;;;;;8.68;83.56;98945.22;5038698;28;20482;-75
2021/11/04 05:46:17;;;;;;;46.53;22.43;;;;;;;8.70;83.63;98942.38;5055498;28;20519;-74
2021/11/04 05:48:43;;;;;;;51.73;24.30;;;;;;;8.84;83.12;98928.44;5038633;28;20442;-74
2021/11/04 05:51:10;;;;;;;36.77;22.10;;;;;;;8.66;83.37;98924.06;5058319;28;20503;-75
2021/11/04 05:53:38;;;;;;;40.43;21.80;;;;;;;8.74;83.23;98928.56;5061527;28;20495;-73
2021/11/04 05:56:05;;;;;;;42.70;22.30;;;;;;;8.81;82.90;98934.09;5060408;28;20468;-74
2021/11/04 05:58:32;;;;;;;39.10;22.30;;;;;;;8.67;83.11;98933.72;5061951;28;20507;-74
2021/11/04 06:00:58;;;;;;;43.20;21.40;;;;;;;8.72;83.30;98935.06;5061201;28;20473;-73
2021/11/04 06:03:25;;;;;;;40.37;22.67;;;;;;;8.63;83.29;98935.03;5061612;28;20612;-74
2021/11/04 06:05:53;;;;;;;41.10;23.03;;;;;;;8.61;83.55;98933.50;5060632;28;20510;-74
2021/11/04 06:08:20;;;;;;;38.63;21.83;;;;;;;8.54;83.79;98938.66;5060272;28;20509;-74
2021/11/04 06:10:48;;;;;;;37.30;20.13;;;;;;;8.56;83.53;98936.69;5061137;28;20465;-74
2021/11/04 06:13:15;;;;;;;41.33;21.80;;;;;;;8.54;83.61;98940.47;5059571;28;21007;-74
2021/11/04 06:15:41;;;;;;;35.37;21.47;;;;;;;8.73;83.25;98934.91;5060993;28;20488;-73
2021/11/04 06:18:08;;;;;;;43.80;21.77;;;;;;;8.86;82.93;98939.78;5062483;28;20493;-73
2021/11/04 06:20:35;;;;;;;37.30;22.27;;;;;;;8.88;82.65;98936.97;5059481;28;20524;-74
2021/11/04 06:23:01;;;;;;;45.50;22.00;;;;;;;8.55;83.61;98934.16;5062243;28;20495;-74
2021/11/04 06:25:28;;;;;;;38.73;22.43;;;;;;;8.59;83.54;98935.50;5061785;28;20503;-74
2021/11/04 06:27:56;;;;;;;39.80;22.97;;;;;;;8.39;84.11;98937.56;5060459;28;20494;-74
2021/11/04 06:30:23;;;;;;;36.30;21.73;;;;;;;8.35;84.06;98938.84;5059286;28;20466;-73
2021/11/04 06:32:50;;;;;;;35.80;20.50;;;;;;;8.24;84.33;98931.97;5061855;28;20448;-74
2021/11/04 06:35:17;;;;;;;39.13;22.73;;;;;;;8.39;84.20;98940.22;5058312;28;20591;-73
2021/11/04 06:37:43;;;;;;;41.47;22.80;;;;;;;8.42;84.04;98934.56;5060648;28;21028;-74
2021/11/04 06:40:11;;;;;;;37.20;21.40;;;;;;;8.38;84.34;98942.03;5059585;28;20533;-74
2021/11/04 06:42:38;;;;;;;39.83;22.03;;;;;;;8.47;83.84;98942.94;5060539;28;20437;-74
2021/11/04 06:45:07;;;;;;;37.93;22.67;;;;;;;8.41;83.98;98943.56;5060144;28;20484;-74
2021/11/04 06:47:39;;;;;;;40.00;21.03;;;;;;;8.42;84.13;98942.56;5061341;28;20461;-73
2021/11/04 06:50:06;;;;;;;32.60;20.90;;;;;;;8.54;83.90;98945.81;5055706;28;20540;-74
2021/11/04 06:52:36;;;;;;;37.13;21.47;;;;;;;8.53;83.67;98944.97;5060303;28;20988;-75
2021/11/04 06:55:04;;;;;;;44.03;21.73;;;;;;;8.44;83.93;98945.94;5061405;28;20429;-75
2021/11/04 06:57:35;;;;;;;45.93;23.33;;;;;;;8.41;84.32;98949.72;5060530;28;21048;-74
2021/11/04 07:00:07;;;;;;;38.53;20.20;;;;;;;8.32;84.68;98948.00;5059982;28;20481;-75
2021/11/04 07:02:35;;;;;;;46.40;21.40;;;;;;;8.24;84.60;98954.09;5061683;28;20459;-75
2021/11/04 07:05:04;;;;;;;42.73;21.83;;;;;;;8.39;84.40;98959.69;5060725;28;20483;-76
2021/11/04 07:07:42;;;;;;;40.83;21.93;;;;;;;8.27;84.61;98956.47;5060702;28;20448;-75
2021/11/04 07:10:09;;;;;;;41.57;21.87;;;;;;;8.32;84.56;98963.16;5044501;28;20457;-76
2021/11/04 07:12:36;;;;;;;43.20;22.10;;;;;;;8.44;84.19;98964.59;5061122;28;20483;-75
2021/11/04 07:15:03;;;;;;;37.90;20.63;;;;;;;8.47;83.95;98961.59;5060609;28;20655;-75
2021/11/04 07:17:31;;;;;;;38.73;21.90;;;;;;;8.33;84.47;98962.97;5060372;28;20456;-75
2021/11/04 07:19:58;;;;;;;42.83;23.43;;;;;;;8.47;84.48;98962.44;5059316;28;20460;-75
2021/11/04 07:22:34;;;;;;;44.73;23.27;;;;;;;8.49;84.31;98959.63;5061359;28;20493;-75
2021/11/04 07:25:05;;;;;;;43.07;23.97;;;;;;;8.42;84.51;98963.84;5062795;28;20433;-75
2021/11/04 07:27:37;;;;;;;48.90;23.10;;;;;;;8.40;84.57;98969.38;5065147;28;20476;-75
2021/11/04 07:30:07;;;;;;;45.17;22.37;;;;;;;8.51;84.54;98970.13;5064418;28;20476;-75
2021/11/04 07:32:35;;;;;;;47.93;24.17;;;;;;;8.45;84.63;98972.44;5064262;28;20468;-75
2021/11/04 07:35:03;;;;;;;43.63;22.37;;;;;;;8.60;84.02;98982.47;5065024;28;20479;-75
2021/11/04 07:37:32;;;;;;;44.17;21.60;;;;;;;8.34;84.46;98980.63;5072657;22;20508;-75
2021/11/04 07:40:00;;;;;;;42.93;22.87;;;;;;;8.35;84.70;98986.78;5063849;28;20460;-73
2021/11/04 07:42:26;;;;;;;45.47;23.50;;;;;;;8.44;84.55;98984.06;5060284;28;20476;-73
2021/11/04 07:44:53;;;;;;;42.27;23.03;;;;;;;8.51;84.34;98997.59;5055411;28;20453;-73
2021/11/04 07:47:20;;;;;;;44.93;23.77;;;;;;;8.45;84.43;98985.75;5042913;28;20553;-72
2021/11/04 07:49:48;;;;;;;59.63;24.40;;;;;;;8.27;85.18;98990.25;5042402;28;20454;-73
2021/11/04 07:52:14;;;;;;;42.23;22.00;;;;;;;8.34;85.18;98990.47;5043451;28;20547;-73
2021/11/04 07:54:41;;;;;;;54.37;24.87;;;;;;;8.21;85.45;98993.53;5042655;28;20460;-73
2021/11/04 07:57:09;;;;;;;53.10;26.83;;;;;;;8.34;85.38;98998.44;5043092;28;20493;-73
2021/11/04 07:59:36;;;;;;;61.70;25.40;;;;;;;8.35;85.34;98995.63;5041884;28;20577;-73
2021/11/04 08:02:03;;;;;;;52.77;25.00;;;;;;;8.16;85.67;98994.03;5042796;28;20509;-74
2021/11/04 08:04:30;;;;;;;59.10;24.23;;;;;;;8.41;85.21;99002.16;5043219;28;20457;-73
2021/11/04 08:06:59;;;;;;;46.77;22.97;;;;;;;8.18;85.80;99008.00;5041826;28;20468;-73
2021/11/04 08:09:26;;;;;;;48.73;22.00;;;;;;;8.28;85.57;99010.53;5043001;28;20481;-74
2021/11/04 08:11:53;;;;;;;42.17;23.20;;;;;;;8.21;85.80;99006.84;5042115;28;20493;-74
2021/11/04 08:14:19;;;;;;;52.60;25.70;;;;;;;8.15;85.63;99007.47;5043395;28;20473;-74
2021/11/04 08:16:46;;;;;;;42.93;22.00;;;;;;;8.23;85.54;99010.22;5042428;28;20513;-72
2021/11/04 08:19:13;;;;;;;51.27;25.50;;;;;;;8.33;85.41;99015.41;5042550;28;20489;-74
2021/11/04 08:21:40;;;;;;;48.20;23.47;;;;;;;8.32;85.45;99016.41;5041272;28;20504;-74
2021/11/04 08:24:08;;;;;;;49.03;22.83;;;;;;;8.34;85.00;99027.75;5048947;28;20473;-74
2021/11/04 08:26:34;;;;;;;41.17;21.83;;;;;;;8.62;84.50;99029.25;5062560;28;20519;-74
2021/11/04 08:29:02;;;;;;;42.70;22.50;;;;;;;8.65;84.04;99022.81;5061879;28;20528;-74
2021/11/04 08:31:29;;;;;;;40.40;21.80;;;;;;;8.47;84.53;99018.38;5061768;28;20511;-74
2021/11/04 08:33:55;;;;;;;34.20;20.20;;;;;;;8.46;84.45;99021.19;5061657;28;20795;-74
2021/11/04 08:36:22;;;;;;;32.97;18.90;;;;;;;8.52;83.74;99025.06;5059683;28;20714;-73
2021/11/04 08:38:49;;;;;;;34.77;20.63;;;;;;;8.50;83.58;99024.38;5062169;28;20488;-73
2021/11/04 08:41:17;;;;;;;34.97;20.00;;;;;;;8.44;83.71;99029.34;5061606;28;20548;-74
2021/11/04 08:43:44;;;;;;;31.27;19.13;;;;;;;8.51;83.44;99034.88;5060314;28;20551;-74
2021/11/04 08:46:10;;;;;;;31.20;18.73;;;;;;;8.39;83.86;99042.25;5062027;28;20472;-74
2021/11/04 08:48:38;;;;;;;32.73;18.97;;;;;;;8.52;83.93;99035.69;5062453;28;20524;-73
2021/11/04 08:51:05;;;;;;;30.97;19.33;;;;;;;8.69;83.27;99047.31;5059460;28;20477;-74
2021/11/04 08:53:32;;;;;;;32.03;19.57;;;;;;;8.86;82.56;99043.72;5062769;28;20457;-73
2021/11/04 08:55:59;;;;;;;30.37;19.70;;;;;;;8.85;82.42;99048.22;5044452;28;20477;-73
2021/11/04 08:58:26;;;;;;;31.97;18.90;;;;;;;8.90;82.52;99046.91;5041386;28;20561;-74
2021/11/04 09:00:53;;;;;;;26.07;17.73;;;;;;;8.74;82.74;99042.34;5041396;28;20497;-74
2021/11/04 09:03:21;;;;;;;30.47;18.37;;;;;;;8.70;82.61;99044.47;5042541;28;20442;-74
2021/11/04 09:05:47;;;;;;;28.07;17.80;;;;;;;8.80;82.58;99050.53;5039608;28;20509;-74
2021/11/04 09:08:14;;;;;;;26.20;17.03;;;;;;;8.71;82.74;99058.63;5042648;28;20453;-74
2021/11/04 09:10:41;;;;;;;25.80;16.23;;;;;;;8.75;82.11;99054.66;5040931;28;20500;-74
2021/11/04 09:13:09;;;;;;;26.17;16.37;;;;;;;8.73;82.61;99045.97;5043796;28;20452;-73
2021/11/04 09:15:39;;;;;;;25.30;15.80;;;;;;;8.91;82.11;99048.59;5061579;28;20465;-74
2021/11/04 09:18:06;;;;;;;23.60;15.20;;;;;;;8.79;82.28;99051.50;5062050;28;20445;-74
2021/11/04 09:20:33;;;;;;;26.50;16.00;;;;;;;8.82;82.43;99053.88;5059907;28;20503;-73
2021/11/04 09:23:00;;;;;;;25.83;17.87;;;;;;;9.03;81.66;99057.97;5061637;28;20457;-74
2021/11/04 09:25:27;;;;;;;22.60;15.97;;;;;;;8.99;81.68;99057.47;5060724;28;20992;-74
2021/11/04 09:27:55;;;;;;;22.83;15.33;;;;;;;8.93;81.95;99071.41;5060787;28;20449;-75
2021/11/04 09:30:22;;;;;;;26.70;17.03;;;;;;;8.96;81.92;99064.94;5060594;28;20460;-73
2021/11/04 09:32:51;;;;;;;25.97;16.43;;;;;;;8.87;81.67;99056.06;5060878;28;20441;-74
2021/11/04 09:35:18;;;;;;;25.63;15.90;;;;;;;8.92;81.65;99060.91;5042273;28;20827;-74
2021/11/04 09:37:45;;;;;;;22.93;16.00;;;;;;;8.99;81.38;99061.94;5041223;28;20482;-74
2021/11/04 09:40:13;;;;;;;25.20;16.03;;;;;;;8.88;81.39;99070.22;5040293;28;20540;-74
2021/11/04 09:42:39;;;;;;;23.90;15.73;;;;;;;8.95;81.32;99069.41;5040255;28;20589;-73
2021/11/04 09:45:07;;;;;;;23.70;16.70;;;;;;;8.99;80.87;99068.13;5049173;28;20456;-74
2021/11/04 09:47:34;;;;;;;28.30;18.27;;;;;;;8.97;81.13;99070.09;5060386;28;20480;-73
2021/11/04 09:50:06;;;;;;;34.70;18.40;;;;;;;8.85;81.46;99082.03;5058366;28;20507;-75
2021/11/04 09:52:34;;;;;;;25.23;15.80;;;;;;;8.71;81.65;99079.94;5060510;28;20472;-73
2021/11/04 09:55:01;;;;;;;26.13;16.80;;;;;;;8.84;81.69;99085.69;5060316;28;20456;-73
2021/11/04 09:57:29;;;;;;;19.97;14.20;;;;;;;8.76;81.72;99091.78;5059843;28;20811;-75
2021/11/04 09:59:57;;;;;;;17.43;13.37;;;;;;;8.68;81.62;99097.09;5060258;28;20489;-74
2021/11/04 10:02:26;;;;;;;25.30;14.30;;;;;;;8.60;81.83;99097.88;5060813;28;20507;-74
2021/11/04 10:04:53;;;;;;;20.90;16.00;;;;;;;8.84;81.41;99102.50;5054005;28;20462;-74
2021/11/04 10:07:21;;;;;;;19.97;14.37;;;;;;;8.82;81.53;99107.16;5040270;28;20461;-74
2021/11/04 10:09:59;;;;;;;22.67;14.87;;;;;;;8.90;81.09;99103.69;5040649;28;20516;-74
2021/11/04 10:12:26;;;;;;;20.00;14.53;;;;;;;8.79;81.34;99104.00;5039280;28;20465;-74
2021/11/04 10:14:53;;;;;;;21.30;14.40;;;;;;;8.92;81.25;99104.38;5045900;28;20483;-74
2021/11/04 10:17:27;;;;;;;24.23;14.13;;;;;;;9.04;80.71;99102.28;5060275;28;20472;-74
2021/11/04 10:19:54;;;;;;;21.53;13.33;;;;;;;8.59;81.88;99106.88;5059571;28;20493;-73
2021/11/04 10:22:26;;;;;;;19.63;14.37;;;;;;;8.65;81.91;99111.56;5060282;28;20479;-74
2021/11/04 10:24:53;;;;;;;21.60;13.73;;;;;;;8.83;81.55;99108.81;5060054;28;20426;-74
2021/11/04 10:27:31;;;;;;;22.33;14.97;;;;;;;8.67;81.60;99114.91;5058928;28;20496;-73
2021/11/04 10:29:57;;;;;;;19.13;13.37;;;;;;;8.70;81.89;99107.56;5060788;28;20969;-74
2021/11/04 10:32:32;;;;;;;23.27;14.83;;;;;;;8.70;81.39;99113.75;5059968;28;20472;-74
2021/11/04 10:35:07;;;;;;;19.40;13.57;;;;;;;8.72;81.61;99111.78;5058705;28;20456;-74
2021/11/04 10:37:43;;;;;;;17.60;12.83;;;;;;;8.74;81.47;99115.09;5039514;28;21023;-74
2021/11/04 10:40:11;;;;;;;17.20;12.10;;;;;;;8.79;81.48;99107.47;5039883;28;20499;-74
2021/11/04 10:42:50;;;;;;;19.03;12.87;;;;;;;8.97;80.64;99111.91;5038885;28;20488;-74
2021/11/04 10:45:24;;;;;;;20.40;13.07;;;;;;;8.97;80.85;99110.06;5049628;28;20456;-74
2021/11/04 10:48:15;;;;;;;18.30;11.10;;;;;;;8.77;80.98;99109.47;5060412;28;20455;-74
2021/11/04 10:50:43;;;;;;;19.80;11.80;;;;;;;8.94;81.05;99109.56;5057308;28;20993;-74
2021/11/04 10:53:11;;;;;;;15.33;10.87;;;;;;;9.12;80.19;99110.31;5059788;28;20425;-74
2021/11/04 10:55:38;;;;;;;14.20;10.23;;;;;;;8.91;80.61;99110.72;5059453;28;20519;-74
2021/11/04 10:58:07;;;;;;;15.30;11.13;;;;;;;8.91;80.35;99117.88;5059158;28;20483;-72
2021/11/04 11:00:38;;;;;;;16.33;11.33;;;;;;;9.04;80.19;99126.28;5063137;28;20496;-74
2021/11/04 11:03:08;;;;;;;14.53;10.23;;;;;;;9.04;80.45;99121.81;5064848;28;20435;-71
2021/11/04 11:05:38;;;;;;;14.73;10.57;;;;;;;8.91;80.69;99124.03;5057532;28;20496;-74
2021/11/04 11:08:06;;;;;;;18.10;11.13;;;;;;;9.01;80.53;99121.28;5044424;28;20484;-74
2021/11/04 11:10:35;;;;;;;15.67;11.43;;;;;;;9.02;80.93;99126.44;5042853;28;20457;-73
2021/11/04 11:13:03;;;;;;;14.70;10.70;;;;;;;8.97;80.36;99125.25;5042950;28;20457;-74
2021/11/04 11:15:30;;;;;;;14.60;9.07;;;;;;;8.99;80.45;99120.56;5044032;28;20462;-74
2021/11/04 11:17:58;;;;;;;14.67;10.87;;;;;;;8.90;80.64;99125.03;5044451;28;20479;-74
2021/11/04 11:20:25;;;;;;;16.07;11.10;;;;;;;8.77;81.21;99127.28;5041764;28;20529;-72
2021/11/04 11:22:52;;;;;;;15.93;10.43;;;;;;;8.86;80.61;99137.00;5043988;28;20517;-74
2021/11/04 11:25:19;;;;;;;13.50;10.47;;;;;;;9.00;80.30;99132.94;5044075;28;21379;-74
2021/11/04 11:27:49;;;;;;;13.67;9.70;;;;;;;9.21;79.85;99130.69;5062105;28;20485;-72
2021/11/04 11:30:15;;;;;;;11.37;8.70;;;;;;;9.05;79.89;99131.44;5063055;28;20512;-73